Huvudsida
METAR-TAF:

METAR-TAF

Flygplatser :

Arvidsjaur flygplats

Arvidsjaur, Sverige

latitud: 65-35-25N, longitud: 019-16-55E, höjd: 379 m

Aktuellt väderrapport

Denna rapport gjordes för 15 minuter sedan, klockan 08:20 UTC
Vind 13 kt från syd
Temperatur 1°C
Fuktighet 80%
Tryck 970 hPa
Sikt 10 km eller mer

METAR: ESNX 220820Z AUTO 19013KT 9999 NCD 01/M02 Q0970

Tid: 09:35 (08:35 UTC)

Väderprognos

Denna rapport gjordes för 3 timmar och 5 minuter sedan, klockan 05:30 UTC
Prognos gäller från 22 kl. 06 UTC till 22 kl. 08 UTC
Vind 15 kt från syd/sydväst
Sikt 10 km eller mer
Inga moln under 1 500 m eller inga cumulonimbus

TAF: ESNX 220530Z 2206/2208 20015KT CAVOK

Aktuella väderrapporter och prognoser från 4000 flygplatser (METAR- och TAF-rapporter).

De tillgängliga stationerna syns som gula och röda prickar på kartan.

För musen över prickarna för att se namnen på stationerna.

Klicka sedan för att få väderrapporter och prognoser.

För att ändra kartan: Klicka på de gröna knapparna med ett svart kors på för att zooma in; den gröna knappen med ett streck på för att zooma ut; eller på de gröna pilarna för angränsande kartor.


METAR-TAF: